Time;durP1;ratioP1;P1;durP2;ratioP2;P2;SDS_P1;SDS_P2;PMS_P1;PMS_P2;Temp;Humidity;BMP_temperature;BMP_pressure;BME280_temperature;BME280_humidity;BME280_pressure;Samples;Min_cycle;Max_cycle;Signal;HPM_P1;HPM_P2
2020/12/30 00:00:39;;;;;;;19.42;10.32;;;;;;;3.26;88.05;100966.65;1749838;82;21267;-35
2020/12/30 00:03:07;;;;;;;17.57;10.20;;;;;;;3.27;88.07;100973.92;1749850;82;20940;-36
2020/12/30 00:05:35;;;;;;;20.20;11.08;;;;;;;3.28;88.14;100971.81;1749816;82;20979;-36
2020/12/30 00:08:05;;;;;;;21.52;9.95;;;;;;;3.28;88.14;100971.81;1749841;82;20940;-36
2020/12/30 00:10:33;;;;;;;14.90;10.00;;;;;;;3.27;88.20;100973.92;1749815;82;20951;-36
2020/12/30 00:13:01;;;;;;;15.75;9.20;;;;;;;3.28;88.22;100978.21;1749852;82;21272;-36
2020/12/30 00:15:28;;;;;;;21.75;10.68;;;;;;;3.30;88.08;100973.98;1749872;82;21537;-35
2020/12/30 00:17:56;;;;;;;16.02;10.00;;;;;;;3.30;88.08;100973.98;1749675;82;21070;-36
2020/12/30 00:20:24;;;;;;;16.25;9.80;;;;;;;3.29;88.33;100964.18;1749989;82;20928;-36
2020/12/30 00:22:52;;;;;;;16.67;10.28;;;;;;;3.32;88.34;100962.52;1749799;82;20959;-36
2020/12/30 00:25:20;;;;;;;17.40;9.75;;;;;;;3.33;88.31;100964.23;1749824;82;22280;-36
2020/12/30 00:27:48;;;;;;;17.57;9.90;;;;;;;3.35;88.38;100963.41;1749729;82;21081;-37
2020/12/30 00:30:17;;;;;;;20.82;10.43;;;;;;;3.37;88.32;100965.58;1749898;82;20991;-36
2020/12/30 00:32:47;;;;;;;35.92;10.93;;;;;;;3.36;88.35;100968.98;1749871;82;21058;-36
2020/12/30 00:35:16;;;;;;;35.90;10.78;;;;;;;3.38;88.41;100972.42;1739262;82;20916;-36
2020/12/30 00:37:44;;;;;;;44.77;11.65;;;;;;;3.39;88.47;100969.03;1740064;82;21199;-36
2020/12/30 00:40:12;;;;;;;38.48;10.72;;;;;;;3.41;88.44;100968.67;1722390;82;20987;-36
2020/12/30 00:42:40;;;;;;;21.02;10.43;;;;;;;3.44;88.42;100974.25;1749677;82;20947;-36
2020/12/30 00:45:09;;;;;;;15.90;9.85;;;;;;;3.44;88.42;100967.85;1749944;82;21435;-36
2020/12/30 00:47:37;;;;;;;19.37;10.15;;;;;;;3.45;88.43;100964.05;1749821;82;21465;-36
2020/12/30 00:50:06;;;;;;;22.40;10.18;;;;;;;3.48;88.47;100967.50;1749701;82;21369;-35
2020/12/30 00:52:35;;;;;;;16.87;9.73;;;;;;;3.48;88.43;100965.79;1749696;82;20956;-37
2020/12/30 00:55:04;;;;;;;19.32;10.95;;;;;;;3.51;88.45;100962.44;1749784;82;20927;-35
2020/12/30 00:57:33;;;;;;;17.62;9.55;;;;;;;3.54;88.48;100952.25;1748331;82;21086;-36
2020/12/30 01:00:02;;;;;;;15.23;9.75;;;;;;;3.55;88.47;100952.70;1749834;82;20920;-36
2020/12/30 01:02:32;;;;;;;16.27;9.68;;;;;;;3.55;88.43;100948.45;1745974;82;21420;-35
2020/12/30 01:05:00;;;;;;;15.65;9.60;;;;;;;3.57;88.44;100941.66;1749839;82;20904;-35
2020/12/30 01:07:27;;;;;;;16.23;9.28;;;;;;;3.59;88.43;100936.16;1749696;82;20971;-36
2020/12/30 01:09:55;;;;;;;14.33;10.30;;;;;;;3.59;88.45;100939.11;1749742;82;21026;-37
2020/12/30 01:12:23;;;;;;;17.12;10.55;;;;;;;3.62;88.49;100936.60;1749749;82;20912;-37
2020/12/30 01:14:50;;;;;;;16.90;9.43;;;;;;;3.64;88.44;100936.21;1722409;82;21336;-37
2020/12/30 01:17:18;;;;;;;13.22;9.35;;;;;;;3.66;88.38;100940.94;1749886;82;21006;-35
2020/12/30 01:19:46;;;;;;;19.75;11.35;;;;;;;3.67;88.38;100934.13;1749763;82;20979;-34
2020/12/30 01:22:14;;;;;;;16.62;9.98;;;;;;;3.69;88.40;100933.73;1749877;81;20931;-38
2020/12/30 01:24:41;;;;;;;13.70;10.08;;;;;;;3.71;88.30;100933.34;1749766;82;20955;-36
2020/12/30 01:27:09;;;;;;;18.57;10.55;;;;;;;3.72;88.27;100934.67;1749812;82;21396;-36
2020/12/30 01:29:37;;;;;;;17.45;10.25;;;;;;;3.74;88.27;100941.95;1749720;82;20947;-36
2020/12/30 01:32:05;;;;;;;19.48;10.58;;;;;;;3.73;88.26;100933.83;1749824;82;20961;-35
2020/12/30 01:34:32;;;;;;;17.07;10.00;;;;;;;3.78;88.21;100935.60;1749684;82;20900;-37
2020/12/30 01:37:00;;;;;;;19.87;9.93;;;;;;;3.78;88.16;100928.77;1749899;81;21546;-36
2020/12/30 01:39:28;;;;;;;18.17;10.45;;;;;;;3.79;88.15;100930.92;1749730;82;21254;-35
2020/12/30 01:42:00;;;;;;;24.63;10.72;;;;;;;3.78;88.19;100922.80;1749690;82;21046;-35
2020/12/30 01:44:28;;;;;;;17.90;9.95;;;;;;;3.79;88.21;100921.56;1749704;82;21521;-35
2020/12/30 01:46:58;;;;;;;17.25;9.73;;;;;;;3.83;88.18;100922.05;1749681;82;20928;-35
2020/12/30 01:49:26;;;;;;;22.75;11.08;;;;;;;3.85;88.19;100912.69;1722446;82;21054;-36
2020/12/30 01:51:53;;;;;;;21.25;11.12;;;;;;;3.87;88.21;100914.86;1749728;81;21200;-36
2020/12/30 01:54:21;;;;;;;14.38;9.63;;;;;;;3.88;88.15;100906.73;1749698;82;21038;-37
2020/12/30 01:56:49;;;;;;;22.82;11.18;;;;;;;3.93;88.17;100910.66;1749692;82;21034;-38
2020/12/30 01:59:19;;;;;;;21.05;11.10;;;;;;;3.96;88.11;100902.63;1749656;81;21323;-34
2020/12/30 02:01:54;;;;;;;18.07;11.48;;;;;;;4.00;88.06;100901.83;1749628;82;20965;-35
2020/12/30 02:07:03;;;;;;;18.42;10.63;;;;;;;4.05;87.98;100890.38;1847680;76;22816;-36
2020/12/30 02:09:31;;;;;;;15.93;9.90;;;;;;;4.02;87.94;100897.59;1818011;79;20947;-35
2020/12/30 02:11:59;;;;;;;16.42;10.43;;;;;;;4.04;87.92;100897.59;1818121;79;21190;-35
2020/12/30 02:14:27;;;;;;;22.55;11.65;;;;;;;4.07;87.88;100891.67;1817879;79;20990;-35
2020/12/30 02:16:56;;;;;;;17.23;10.98;;;;;;;4.09;88.06;100892.14;1818049;79;21002;-35
2020/12/30 02:19:24;;;;;;;16.52;10.60;;;;;;;4.09;88.06;100892.14;1818111;78;20923;-35
2020/12/30 02:21:55;;;;;;;24.25;11.28;;;;;;;4.11;87.85;100899.84;1817948;79;20887;-35
2020/12/30 02:24:29;;;;;;;22.25;11.10;;;;;;;4.14;87.73;100882.82;1818110;78;21191;-36
2020/12/30 02:26:57;;;;;;;20.50;11.73;;;;;;;4.14;87.73;100882.82;1817937;79;21005;-36
2020/12/30 02:29:28;;;;;;;26.70;10.75;;;;;;;4.16;88.06;100892.67;1817879;79;20970;-35
2020/12/30 02:31:56;;;;;;;19.35;10.58;;;;;;;4.21;88.05;100892.75;1817886;79;20951;-35
2020/12/30 02:34:24;;;;;;;22.30;11.20;;;;;;;4.25;88.09;100895.80;1818035;79;20899;-37
2020/12/30 02:36:52;;;;;;;25.57;12.10;;;;;;;4.27;88.06;100896.67;1817816;79;21361;-36
2020/12/30 02:39:21;;;;;;;49.45;12.63;;;;;;;4.31;88.14;100900.16;1817965;79;21010;-36
2020/12/30 02:41:49;;;;;;;41.88;12.37;;;;;;;4.31;88.14;100900.16;1817895;79;20927;-34
2020/12/30 02:44:17;;;;;;;37.48;13.58;;;;;;;4.34;87.96;100905.33;1817922;79;20931;-35
2020/12/30 02:46:44;;;;;;;37.30;14.05;;;;;;;4.36;88.07;100904.05;1818000;79;21002;-35
2020/12/30 02:49:12;;;;;;;56.75;13.43;;;;;;;4.40;88.03;100903.25;1818057;79;21256;-36
2020/12/30 02:51:43;;;;;;;45.88;11.43;;;;;;;4.42;88.02;100897.31;1818000;79;20946;-36
2020/12/30 02:54:11;;;;;;;43.68;12.98;;;;;;;4.46;88.05;100890.54;1818086;79;21006;-36
2020/12/30 02:56:40;;;;;;;42.58;12.82;;;;;;;4.50;88.05;100891.42;1818027;79;20956;-36
2020/12/30 02:59:07;;;;;;;35.17;12.82;;;;;;;4.50;87.95;100897.42;1817980;79;20915;-36
2020/12/30 03:01:35;;;;;;;99.07;15.55;;;;;;;4.53;88.03;100897.47;1818031;79;21185;-36
2020/12/30 03:04:04;;;;;;;97.42;14.55;;;;;;;4.56;88.03;100907.76;1817912;78;20911;-36
2020/12/30 03:06:32;;;;;;;66.00;14.55;;;;;;;4.58;88.02;100906.52;1827650;78;20910;-35
2020/12/30 03:09:00;;;;;;;89.17;13.08;;;;;;;4.59;88.11;100902.66;1833051;78;20871;-35
2020/12/30 03:11:27;;;;;;;40.33;13.28;;;;;;;4.63;88.03;100896.29;1833116;78;21424;-37
2020/12/30 03:13:56;;;;;;;29.63;12.07;;;;;;;4.64;88.04;100898.02;1832992;78;22703;-35
2020/12/30 03:16:23;;;;;;;37.70;12.20;;;;;;;4.64;87.95;100898.89;1833003;78;21062;-36
2020/12/30 03:18:52;;;;;;;30.30;11.70;;;;;;;4.64;88.04;100889.04;1832439;78;21018;-37
2020/12/30 03:21:20;;;;;;;34.23;12.35;;;;;;;4.64;88.04;100889.04;1832433;78;21006;-34
2020/12/30 03:23:47;;;;;;;31.25;12.98;;;;;;;4.66;88.19;100894.64;1832390;78;20991;-36
2020/12/30 03:26:15;;;;;;;33.18;12.28;;;;;;;4.66;88.19;100894.64;1832386;78;21370;-35
2020/12/30 03:28:43;;;;;;;27.27;12.18;;;;;;;4.69;88.06;100902.81;1832274;78;21013;-36
2020/12/30 03:31:10;;;;;;;32.48;11.93;;;;;;;4.70;87.96;100899.40;1832481;78;20934;-36
2020/12/30 03:33:38;;;;;;;35.38;13.28;;;;;;;4.71;87.97;100908.81;1832264;78;21409;-35
2020/12/30 03:36:06;;;;;;;50.40;13.68;;;;;;;4.72;87.96;100906.69;1832382;78;21001;-36
2020/12/30 03:38:34;;;;;;;38.10;14.23;;;;;;;4.71;87.91;100907.09;1832450;78;21183;-36
2020/12/30 03:41:02;;;;;;;59.40;15.40;;;;;;;4.71;87.91;100906.25;1832299;78;20878;-36
2020/12/30 03:43:30;;;;;;;43.10;13.30;;;;;;;4.71;87.91;100904.53;1832437;78;20901;-36
2020/12/30 03:45:57;;;;;;;42.70;14.25;;;;;;;4.72;87.86;100909.26;1832454;78;20963;-36
2020/12/30 03:48:26;;;;;;;43.45;14.43;;;;;;;4.69;87.88;100899.80;1832502;78;20953;-36
2020/12/30 03:50:53;;;;;;;36.80;13.80;;;;;;;4.70;87.92;100908.37;1832441;78;21444;-35
2020/12/30 03:53:21;;;;;;;30.27;12.95;;;;;;;4.69;87.90;100901.53;1832319;78;21020;-35
2020/12/30 03:55:49;;;;;;;43.45;14.40;;;;;;;4.69;87.90;100901.53;1832357;78;20898;-36
2020/12/30 03:58:17;;;;;;;35.92;14.83;;;;;;;4.69;87.98;100910.50;1832467;78;20970;-35
2020/12/30 04:00:46;;;;;;;42.90;14.47;;;;;;;4.68;87.97;100911.34;1832323;78;21481;-36
2020/12/30 04:03:14;;;;;;;38.58;15.18;;;;;;;4.70;87.96;100916.92;1832457;78;21255;-37
2020/12/30 04:05:42;;;;;;;45.58;13.65;;;;;;;4.70;87.97;100921.20;1830129;78;21069;-36
2020/12/30 04:08:09;;;;;;;51.15;13.75;;;;;;;4.68;88.04;100916.47;1817322;78;20971;-36
2020/12/30 04:10:37;;;;;;;51.35;15.00;;;;;;;4.69;87.99;100923.33;1817246;78;20958;-35
2020/12/30 04:13:05;;;;;;;44.18;14.30;;;;;;;4.69;87.96;100923.33;1817384;79;21057;-36
2020/12/30 04:15:33;;;;;;;40.25;13.75;;;;;;;4.68;88.18;100921.61;1817298;79;21302;-36
2020/12/30 04:18:00;;;;;;;44.73;14.03;;;;;;;4.68;88.01;100928.02;1817260;79;20982;-36
2020/12/30 04:20:28;;;;;;;37.67;14.03;;;;;;;4.67;87.97;100921.13;1817328;78;20959;-34
2020/12/30 04:22:56;;;;;;;43.95;15.75;;;;;;;4.68;87.81;100933.98;1817284;79;20978;-35
2020/12/30 04:25:23;;;;;;;39.13;13.65;;;;;;;4.68;87.99;100932.70;1817302;79;20939;-35
2020/12/30 04:27:51;;;;;;;34.92;14.47;;;;;;;4.68;88.03;100930.58;1817357;79;21360;-36
2020/12/30 04:30:19;;;;;;;46.10;14.68;;;;;;;4.69;87.98;100933.59;1817320;79;20966;-35
2020/12/30 04:32:47;;;;;;;38.20;13.93;;;;;;;4.68;88.02;100923.73;1817296;79;20994;-35
2020/12/30 04:35:15;;;;;;;42.15;14.23;;;;;;;4.68;88.06;100933.14;1817211;78;21124;-35
2020/12/30 04:37:43;;;;;;;45.45;14.87;;;;;;;4.69;88.02;100938.72;1817371;79;20990;-36
2020/12/30 04:40:11;;;;;;;34.25;14.78;;;;;;;4.66;88.05;100936.95;1817221;79;22307;-36
2020/12/30 04:42:39;;;;;;;37.17;13.60;;;;;;;4.64;88.10;100938.64;1817171;79;20986;-35
2020/12/30 04:45:09;;;;;;;42.98;14.38;;;;;;;4.68;88.11;100942.13;1817291;78;21307;-35
2020/12/30 04:47:37;;;;;;;41.08;14.70;;;;;;;4.68;88.21;100937.84;1817307;79;21101;-34
2020/12/30 04:50:05;;;;;;;44.80;15.98;;;;;;;4.69;88.19;100945.97;1731767;79;20998;-37
2020/12/30 04:52:33;;;;;;;41.53;14.93;;;;;;;4.73;88.07;100955.42;1817259;79;21371;-35
2020/12/30 04:55:00;;;;;;;30.27;14.23;;;;;;;4.73;88.07;100955.42;1817202;79;20880;-35
2020/12/30 04:58:00;;;;;;;50.05;14.10;;;;;;;4.75;88.09;100955.46;1817289;79;20991;-36
2020/12/30 05:00:29;;;;;;;39.35;13.83;;;;;;;4.73;88.06;100964.41;1816970;79;20990;-35
2020/12/30 05:02:57;;;;;;;25.65;11.97;;;;;;;4.74;88.03;100958.44;1786085;79;20919;-36
2020/12/30 05:05:25;;;;;;;32.42;14.05;;;;;;;4.75;88.01;100954.18;1817257;79;21180;-34
2020/12/30 05:07:53;;;;;;;40.85;14.70;;;;;;;4.74;88.04;100955.02;1830691;78;21037;-35
2020/12/30 05:10:21;;;;;;;38.73;15.20;;;;;;;4.74;88.10;100958.87;1778863;78;20915;-34
2020/12/30 05:12:48;;;;;;;67.97;16.00;;;;;;;4.74;88.10;100954.58;1832380;78;20954;-36
2020/12/30 05:15:16;;;;;;;70.85;15.85;;;;;;;4.74;88.24;100959.72;1805065;78;20958;-35
2020/12/30 05:17:44;;;;;;;84.50;17.25;;;;;;;4.75;88.28;100962.72;1832502;78;21516;-35
2020/12/30 05:20:11;;;;;;;84.83;17.98;;;;;;;4.75;88.52;100964.00;1832321;78;20970;-37
2020/12/30 05:22:39;;;;;;;77.97;15.83;;;;;;;4.75;88.52;100964.00;1832356;78;20967;-36
2020/12/30 05:25:08;;;;;;;62.48;15.35;;;;;;;4.78;88.32;100962.31;1832354;78;21061;-34
2020/12/30 05:27:37;;;;;;;38.23;14.80;;;;;;;4.79;88.27;100966.61;1832252;78;20981;-35
2020/12/30 05:30:05;;;;;;;49.00;15.48;;;;;;;4.78;88.30;100964.48;1832424;78;21129;-35
2020/12/30 05:32:37;;;;;;;39.80;13.43;;;;;;;4.77;88.32;100965.32;1832117;78;20915;-37
2020/12/30 05:35:05;;;;;;;45.75;14.60;;;;;;;4.79;88.33;100966.20;1832490;78;20914;-36
2020/12/30 05:37:34;;;;;;;38.25;14.28;;;;;;;4.79;88.30;100971.33;1832275;78;20875;-36
2020/12/30 05:40:03;;;;;;;49.95;15.23;;;;;;;4.79;88.37;100973.89;1832372;78;21378;-35
2020/12/30 05:42:31;;;;;;;47.40;15.38;;;;;;;4.79;88.45;100978.15;1804811;78;21423;-37
2020/12/30 05:44:59;;;;;;;46.98;14.93;;;;;;;4.79;88.12;100984.16;1832401;78;20966;-35
2020/12/30 05:47:27;;;;;;;38.35;13.83;;;;;;;4.79;88.12;100984.16;1832279;78;20981;-35
2020/12/30 05:49:57;;;;;;;33.67;13.38;;;;;;;4.80;88.42;100985.87;1832252;78;20911;-36
2020/12/30 05:52:28;;;;;;;35.33;12.98;;;;;;;4.77;88.45;101001.23;1832396;77;20890;-35
2020/12/30 05:55:00;;;;;;;37.17;14.80;;;;;;;4.75;88.53;100989.66;1832324;78;22118;-37
2020/12/30 05:57:33;;;;;;;39.27;13.68;;;;;;;4.77;88.52;100990.09;1832229;78;21477;-35
2020/12/30 06:00:12;;;;;;;34.38;12.47;;;;;;;4.77;88.57;100993.53;1832278;78;20910;-37
2020/12/30 06:02:45;;;;;;;37.25;13.95;;;;;;;4.77;88.60;100999.07;1832331;78;20966;-35
2020/12/30 06:05:23;;;;;;;46.35;13.60;;;;;;;4.79;88.87;100988.41;1832481;78;20962;-36
2020/12/30 06:07:54;;;;;;;34.80;12.33;;;;;;;4.79;88.70;100998.27;1821109;78;21347;-35
2020/12/30 06:10:24;;;;;;;43.65;14.03;;;;;;;4.79;88.70;100998.27;1817187;79;20931;-35
2020/12/30 06:13:01;;;;;;;35.20;13.40;;;;;;;4.78;88.74;101008.09;1817178;78;20923;-38
2020/12/30 06:15:31;;;;;;;41.25;12.65;;;;;;;4.80;88.76;101004.23;1817161;78;21117;-36
2020/12/30 06:18:07;;;;;;;37.67;13.55;;;;;;;4.81;88.73;101001.71;1817214;79;20970;-35
2020/12/30 06:20:40;;;;;;;35.45;13.18;;;;;;;4.82;88.65;100997.02;1817232;79;21192;-36
2020/12/30 06:23:15;;;;;;;40.30;13.40;;;;;;;4.83;88.78;101006.44;1817196;79;20942;-36
2020/12/30 06:25:45;;;;;;;35.60;12.90;;;;;;;4.87;88.75;101004.36;1817351;79;20919;-36
2020/12/30 06:28:16;;;;;;;41.13;12.30;;;;;;;4.89;88.68;101008.23;1817154;78;20919;-36
2020/12/30 06:30:46;;;;;;;40.58;13.20;;;;;;;4.92;88.63;101009.56;1817243;79;20907;-34
2020/12/30 06:33:14;;;;;;;35.38;12.95;;;;;;;4.94;88.66;101001.46;1817175;79;21437;-36
2020/12/30 06:35:43;;;;;;;33.60;12.30;;;;;;;4.95;88.58;101004.91;1817175;79;20986;-36
2020/12/30 06:38:22;;;;;;;34.53;12.82;;;;;;;4.98;88.56;101008.79;1817283;79;20967;-36
2020/12/30 06:40:58;;;;;;;34.85;13.58;;;;;;;5.01;88.49;101008.83;1817210;78;21022;-36
2020/12/30 06:43:46;;;;;;;32.98;12.73;;;;;;;5.01;88.45;101012.23;1817203;78;21002;-36
2020/12/30 06:46:24;;;;;;;29.23;12.65;;;;;;;5.04;88.45;101016.56;1817161;79;21375;-35
2020/12/30 06:49:04;;;;;;;29.35;12.70;;;;;;;5.08;88.42;101021.33;1813765;79;20978;-35
2020/12/30 06:51:38;;;;;;;28.52;12.95;;;;;;;5.10;88.43;101015.36;1817222;79;21533;-36
2020/12/30 06:54:06;;;;;;;31.02;12.78;;;;;;;5.11;88.29;101009.38;1817311;79;21002;-35
2020/12/30 06:56:45;;;;;;;35.95;13.13;;;;;;;5.14;88.45;101011.13;1817408;79;20951;-36
2020/12/30 06:59:28;;;;;;;32.95;12.37;;;;;;;5.17;88.35;101014.58;1817331;78;21121;-35
2020/12/30 07:01:59;;;;;;;27.13;12.23;;;;;;;5.20;88.39;101020.63;1817450;78;21145;-36
2020/12/30 07:04:31;;;;;;;42.03;14.55;;;;;;;5.23;88.29;101025.80;1817237;78;21524;-37
2020/12/30 10:16:48;;;;;;;14.35;8.33;;;;;;;8.07;80.68;100986.95;1843044;77;22710;-35
2020/12/30 10:19:16;;;;;;;18.92;9.28;;;;;;;8.02;79.42;100984.36;1827729;78;20907;-33
2020/12/30 10:21:44;;;;;;;17.65;9.15;;;;;;;7.97;79.17;100979.22;1827674;78;21229;-35
2020/12/30 10:24:12;;;;;;;16.10;8.83;;;;;;;7.91;79.17;100980.48;1827539;78;21064;-35
2020/12/30 10:26:41;;;;;;;20.77;9.60;;;;;;;7.86;79.32;100978.33;1827643;78;20986;-36
2020/12/30 10:29:09;;;;;;;19.48;8.95;;;;;;;7.74;79.21;100965.87;1827702;78;21594;-36
2020/12/30 10:31:37;;;;;;;15.78;8.23;;;;;;;7.69;79.41;100967.56;1827706;78;21010;-34
2020/12/30 10:34:05;;;;;;;18.05;8.68;;;;;;;7.65;79.55;100965.84;1827757;77;22474;-34
2020/12/30 10:36:33;;;;;;;22.45;8.78;;;;;;;7.64;79.67;100958.13;1827625;78;21477;-35
2020/12/30 10:39:01;;;;;;;25.57;9.13;;;;;;;7.64;79.84;100956.39;1827663;78;20986;-36
2020/12/30 10:41:29;;;;;;;14.93;8.45;;;;;;;7.67;79.98;100952.53;1827583;78;20876;-34
2020/12/30 10:43:57;;;;;;;13.10;7.90;;;;;;;7.76;79.98;100958.13;1827724;78;21046;-36
2020/12/30 10:46:25;;;;;;;12.65;7.75;;;;;;;7.85;79.68;100959.86;1827747;78;21185;-34
2020/12/30 10:48:54;;;;;;;15.68;7.62;;;;;;;7.90;79.43;100952.98;1827625;78;20920;-37
2020/12/30 10:51:22;;;;;;;14.35;8.03;;;;;;;7.91;79.12;100950.83;1827543;78;20994;-35
2020/12/30 10:53:49;;;;;;;17.32;8.50;;;;;;;7.94;79.01;100954.70;1827625;78;21006;-36
2020/12/30 10:56:17;;;;;;;14.07;8.10;;;;;;;7.96;78.91;100953.02;1827675;78;20887;-35
2020/12/30 10:58:45;;;;;;;14.93;7.30;;;;;;;8.02;78.54;100955.58;1827585;78;21347;-35
2020/12/30 11:01:13;;;;;;;10.82;7.03;;;;;;;8.04;78.32;100948.70;1827625;78;20989;-36
2020/12/30 11:03:41;;;;;;;11.88;7.35;;;;;;;8.09;78.25;100947.84;1827625;78;20978;-38
2020/12/30 11:06:10;;;;;;;15.72;8.18;;;;;;;8.13;78.10;100946.56;1827490;77;21045;-36
2020/12/30 11:08:38;;;;;;;16.45;7.50;;;;;;;8.19;78.03;100939.22;1827741;78;20955;-35
2020/12/30 11:11:06;;;;;;;10.38;7.40;;;;;;;8.29;77.99;100944.82;1827647;77;22637;-38
2020/12/30 11:13:34;;;;;;;12.05;6.80;;;;;;;8.43;77.79;100939.64;1827576;77;20915;-35
2020/12/30 11:16:02;;;;;;;12.50;6.92;;;;;;;8.60;77.52;100944.80;1821067;78;21002;-36
2020/12/30 11:18:30;;;;;;;13.15;7.70;;;;;;;8.72;76.75;100942.61;1815807;79;20963;-35
2020/12/30 11:20:58;;;;;;;16.95;7.00;;;;;;;8.76;75.99;100936.57;1815768;78;20923;-35
2020/12/30 11:23:26;;;;;;;12.82;7.35;;;;;;;8.73;75.96;100937.88;1815819;79;22514;-36
2020/12/30 11:25:54;;;;;;;14.05;7.90;;;;;;;8.74;75.96;100942.17;1815664;79;20931;-36
2020/12/30 11:28:22;;;;;;;10.65;7.05;;;;;;;8.71;75.85;100944.77;1815825;79;20932;-37
2020/12/30 11:30:50;;;;;;;13.78;7.15;;;;;;;8.71;75.83;100937.44;1815770;79;21035;-35
2020/12/30 11:33:18;;;;;;;11.85;7.25;;;;;;;8.68;75.65;100940.03;1815777;79;21030;-34
2020/12/30 11:35:46;;;;;;;18.07;6.58;;;;;;;8.67;75.80;100937.02;1815836;78;22688;-36
2020/12/30 11:38:14;;;;;;;13.08;7.20;;;;;;;8.68;75.91;100943.48;1815777;79;21030;-36
2020/12/30 11:40:42;;;;;;;15.88;6.97;;;;;;;8.67;75.96;100943.48;1815700;79;20970;-36
2020/12/30 11:43:09;;;;;;;11.55;7.30;;;;;;;8.66;75.90;100935.31;1815755;79;21307;-36
2020/12/30 11:45:38;;;;;;;11.38;6.53;;;;;;;8.66;75.96;100935.31;1815808;78;20895;-38
2020/12/30 11:48:06;;;;;;;9.00;6.08;;;;;;;8.68;75.98;100928.00;1815825;79;21391;-38
2020/12/30 11:50:35;;;;;;;12.98;6.95;;;;;;;8.73;76.03;100928.00;1815688;79;20983;-35
2020/12/30 11:53:03;;;;;;;10.18;7.08;;;;;;;8.76;75.97;100931.86;1815744;78;20998;-34
2020/12/30 11:55:31;;;;;;;13.68;7.00;;;;;;;8.75;75.93;100921.11;1815726;79;20955;-34
2020/12/30 11:57:58;;;;;;;10.28;6.22;;;;;;;8.73;75.75;100928.84;1815797;77;20915;-35
2020/12/30 12:00:26;;;;;;;8.53;5.90;;;;;;;8.72;75.90;100915.95;1815824;79;21308;-35
2020/12/30 12:02:54;;;;;;;11.75;6.60;;;;;;;8.72;75.91;100932.28;1815753;79;21488;-35
2020/12/30 12:05:22;;;;;;;16.32;6.40;;;;;;;8.72;75.99;100926.28;1815730;79;20959;-34
2020/12/30 12:07:49;;;;;;;11.20;6.55;;;;;;;8.69;76.04;100923.68;1815736;79;21003;-35
2020/12/30 12:10:17;;;;;;;10.50;5.85;;;;;;;8.69;75.84;100926.27;1815769;79;20991;-36
2020/12/30 12:12:45;;;;;;;10.40;6.12;;;;;;;8.67;75.93;100924.13;1815757;79;21236;-34
2020/12/30 12:15:13;;;;;;;10.85;6.37;;;;;;;8.67;75.91;100928.87;1815640;79;20979;-40
2020/12/30 12:17:41;;;;;;;12.53;6.60;;;;;;;8.65;76.08;100927.14;1815700;79;20959;-37
2020/12/30 12:20:09;;;;;;;11.05;7.47;;;;;;;8.58;75.99;100922.00;1815779;79;20923;-38
2020/12/30 12:22:37;;;;;;;8.53;5.72;;;;;;;8.54;76.12;100933.20;1815790;79;20884;-36
2020/12/30 12:25:05;;;;;;;8.53;5.92;;;;;;;8.50;76.18;100927.63;1815678;79;22569;-36
2020/12/30 12:27:33;;;;;;;13.30;5.97;;;;;;;8.45;76.22;100931.47;1815666;78;21007;-38
2020/12/30 12:30:01;;;;;;;11.25;6.45;;;;;;;8.39;76.36;100925.03;1815673;78;21011;-37
2020/12/30 12:32:29;;;;;;;12.45;6.53;;;;;;;8.32;76.58;100931.05;1815699;79;20896;-37
2020/12/30 12:34:57;;;;;;;13.72;6.10;;;;;;;8.28;76.69;100927.63;1815651;78;20971;-37
2020/12/30 12:37:26;;;;;;;13.75;6.62;;;;;;;8.23;76.77;100927.20;1815798;79;21320;-38
2020/12/30 12:39:54;;;;;;;11.90;6.40;;;;;;;8.18;76.92;100933.22;1815761;78;21528;-36
2020/12/30 12:42:22;;;;;;;13.05;6.65;;;;;;;8.11;77.14;100926.36;1815736;77;20995;-36
2020/12/30 12:44:51;;;;;;;10.68;6.90;;;;;;;8.05;77.33;100924.64;1815636;79;21034;-36
2020/12/30 12:47:19;;;;;;;10.43;6.87;;;;;;;8.00;77.49;100922.50;1815756;79;21023;-37
2020/12/30 12:49:47;;;;;;;15.70;6.53;;;;;;;7.94;77.63;100916.03;1815693;78;21123;-38
2020/12/30 12:52:15;;;;;;;12.45;6.60;;;;;;;7.90;77.88;100913.03;1815677;78;20923;-37
2020/12/30 12:54:44;;;;;;;13.50;7.30;;;;;;;7.84;78.08;100917.77;1815652;78;20920;-36
2020/12/30 12:57:12;;;;;;;11.43;6.72;;;;;;;7.77;78.33;100918.61;1806804;79;20963;-35
2020/12/30 12:59:40;;;;;;;13.95;6.55;;;;;;;7.74;78.52;100912.17;1815630;79;20943;-36
2020/12/30 13:02:08;;;;;;;11.63;6.28;;;;;;;7.73;78.85;100918.19;1815788;78;21180;-34
2020/12/30 13:04:36;;;;;;;12.73;7.00;;;;;;;7.67;79.00;100922.89;1815591;79;21002;-36
2020/12/30 13:07:04;;;;;;;14.60;6.65;;;;;;;7.62;79.03;100920.75;1815623;79;20932;-35
2020/12/30 13:09:33;;;;;;;18.77;7.08;;;;;;;7.56;79.17;100916.44;1815639;78;21010;-36
2020/12/30 13:12:01;;;;;;;11.70;6.47;;;;;;;7.53;79.37;100916.44;1815714;78;20923;-37
2020/12/30 13:14:29;;;;;;;14.68;6.62;;;;;;;7.46;79.65;100913.02;1815677;79;22506;-35
2020/12/30 13:16:57;;;;;;;11.43;6.97;;;;;;;7.40;80.01;100914.27;1803503;79;21093;-36
2020/12/30 13:19:25;;;;;;;11.25;6.97;;;;;;;7.33;80.06;100905.69;1818890;79;20998;-35
2020/12/30 13:21:53;;;;;;;9.68;6.53;;;;;;;7.30;80.13;100899.22;1818826;79;20974;-36
2020/12/30 13:24:21;;;;;;;12.40;6.75;;;;;;;7.26;80.36;100900.52;1818874;78;21002;-37
2020/12/30 13:26:48;;;;;;;10.63;7.12;;;;;;;7.22;80.56;100903.94;1818818;79;21182;-37
2020/12/30 13:29:16;;;;;;;12.00;7.42;;;;;;;7.17;80.72;100909.07;1818792;79;20982;-38
2020/12/30 13:31:50;;;;;;;14.40;8.63;;;;;;;7.15;80.92;100907.77;1818844;79;20994;-36
2020/12/30 13:34:18;;;;;;;11.10;8.20;;;;;;;7.11;81.06;100906.04;1818868;79;21517;-37
2020/12/30 13:36:46;;;;;;;11.43;7.85;;;;;;;7.07;81.12;100895.72;1818896;78;21284;-38
2020/12/30 13:39:14;;;;;;;12.98;7.90;;;;;;;6.99;81.17;100901.71;1818853;78;21401;-37
2020/12/30 13:41:42;;;;;;;14.70;7.42;;;;;;;6.92;81.27;100902.96;1818668;79;20971;-36
2020/12/30 13:44:10;;;;;;;13.05;7.50;;;;;;;6.81;81.32;100898.64;1818866;79;21050;-36
2020/12/30 13:46:38;;;;;;;13.13;7.12;;;;;;;6.72;81.50;100893.47;1818719;79;20872;-37
2020/12/30 13:49:07;;;;;;;11.15;7.40;;;;;;;6.66;81.62;100897.27;1819003;78;20860;-34
2020/12/30 13:51:35;;;;;;;13.58;7.47;;;;;;;6.59;81.81;100898.98;1818772;79;21417;-34
2020/12/30 13:54:03;;;;;;;13.45;7.17;;;;;;;6.51;81.97;100891.63;1818747;79;21006;-35
2020/12/30 13:56:31;;;;;;;17.65;8.70;;;;;;;6.42;82.20;100895.00;1818814;79;21006;-38
2020/12/30 13:58:59;;;;;;;15.40;8.50;;;;;;;6.38;82.58;100888.13;1818826;78;21049;-36
2020/12/30 14:01:28;;;;;;;11.65;7.78;;;;;;;6.32;82.65;100888.53;1818849;78;21026;-37
2020/12/30 14:03:57;;;;;;;11.22;8.05;;;;;;;6.30;82.89;100889.36;1818861;79;22789;-37
2020/12/30 14:06:26;;;;;;;19.85;7.62;;;;;;;6.24;82.94;100888.92;1818741;79;20892;-34
2020/12/30 14:08:54;;;;;;;10.10;7.25;;;;;;;6.13;82.88;100876.41;1818738;78;20966;-36
2020/12/30 14:11:22;;;;;;;15.18;7.45;;;;;;;5.99;83.20;100885.27;1818788;78;21044;-36
2020/12/30 14:13:51;;;;;;;13.40;7.67;;;;;;;5.99;83.20;100885.27;1818853;79;20943;-36
2020/12/30 14:16:19;;;;;;;11.88;7.42;;;;;;;5.92;83.47;100882.23;1819086;78;21185;-34
2020/12/30 14:18:47;;;;;;;12.13;7.60;;;;;;;5.87;83.59;100886.04;1821616;78;20990;-35
2020/12/30 14:21:16;;;;;;;12.63;7.17;;;;;;;5.83;83.81;100879.16;1821716;78;20915;-36
2020/12/30 14:23:44;;;;;;;13.95;8.68;;;;;;;5.77;84.01;100874.83;1821731;77;20971;-36
2020/12/30 14:26:13;;;;;;;13.13;7.80;;;;;;;5.73;84.14;100884.64;1821575;78;20927;-35
2020/12/30 14:28:41;;;;;;;13.62;8.03;;;;;;;5.69;84.33;100879.92;1821643;78;21343;-35
2020/12/30 14:31:09;;;;;;;14.05;8.70;;;;;;;5.61;84.44;100877.28;1821620;78;20939;-36
2020/12/30 14:33:39;;;;;;;14.80;8.88;;;;;;;5.62;84.72;100879.41;1805810;78;21069;-35
2020/12/30 14:36:08;;;;;;;17.65;8.55;;;;;;;5.60;85.23;100874.27;1821590;78;20864;-35
2020/12/30 14:38:36;;;;;;;13.95;8.78;;;;;;;5.63;85.42;100875.99;1821673;78;20852;-36
2020/12/30 14:41:04;;;;;;;20.02;8.08;;;;;;;5.67;85.61;100870.03;1821607;78;21178;-34